This is the latest recevied weather packets stored in our database for station/object SR7U-1. If no packets are shown the sender has not sent any weather packets the latest 10 day(s).
| Time | Temp. | Humidity | Pressure | Rain* | Wind** | Luminosity | Snow |
|---|---|---|---|---|---|---|---|
| 1777797442 | 20.56° C | 38% | 1019.3 hPa | - | - | - | - |
| 1777796675 | 20° C | 36% | 1019.3 hPa | - | - | - | - |
| 1777795910 | 20° C | 37% | 1019.3 hPa | - | - | - | - |
| 1777795175 | 19.44° C | 37% | 1019.3 hPa | - | - | - | - |
| 1777794440 | 18.33° C | 41% | 1019.2 hPa | - | - | - | - |
| 1777793570 | 18.33° C | 43% | 1019.3 hPa | - | - | - | - |
| 1777792692 | 18.33° C | 41% | 1019.3 hPa | - | - | - | - |
| 1777791930 | 17.22° C | 44% | 1019.3 hPa | - | - | - | - |
| 1777791033 | 16.67° C | 44% | 1019.4 hPa | - | - | - | - |
| 1777790275 | 15.56° C | 48% | 1019.4 hPa | - | - | - | - |
| 1777789415 | 16.11° C | 46% | 1019.4 hPa | - | - | - | - |
| 1777788530 | 15° C | 50% | 1019.3 hPa | - | - | - | - |
| 1777787733 | 13.33° C | 58% | 1019.3 hPa | - | - | - | - |
| 1777786980 | 12.78° C | 56% | 1019.4 hPa | - | - | - | - |
| 1777786224 | 11.67° C | 59% | 1019.4 hPa | - | - | - | - |
| 1777785346 | 11.11° C | 61% | 1019.3 hPa | - | - | - | - |
| 1777784630 | 10.56° C | 62% | 1019.2 hPa | - | - | - | - |
| 1777783770 | 10° C | 62% | 1019.3 hPa | - | - | - | - |
| 1777782870 | 10° C | 66% | 1019.4 hPa | - | - | - | - |
| 1777782030 | 9.44° C | 67% | 1019.4 hPa | - | - | - | - |
| 1777781280 | 8.89° C | 68% | 1019.2 hPa | - | - | - | - |
| 1777780552 | 8.33° C | 68% | 1019.2 hPa | - | - | - | - |
| 1777779755 | 8.33° C | 70% | 1019.2 hPa | - | - | - | - |
| 1777779010 | 7.78° C | 72% | 1019.2 hPa | - | - | - | - |
| 1777778285 | 7.22° C | 75% | 1019.2 hPa | - | - | - | - |
* Rain since midnight (hover to see other rain measurements)
** Current wind speed in m/s (hover to see current wind gust speed)